createdAt,value
2022-08-20T00:00:35.009Z,100542.22
2022-08-20T00:02:42.668Z,100549.50
2022-08-20T00:04:44.672Z,100552.44
2022-08-20T00:06:46.587Z,100547.03
2022-08-20T00:08:48.519Z,100548.47
2022-08-20T00:10:55.627Z,100551.91
2022-08-20T00:12:57.993Z,100527.44
2022-08-20T00:15:00.181Z,100535.22
2022-08-20T00:17:03.490Z,100540.06
2022-08-20T00:19:09.461Z,100541.00
2022-08-20T00:21:18.657Z,100548.06
2022-08-20T00:23:21.730Z,100539.34
2022-08-20T00:25:26.415Z,100546.03
2022-08-20T00:27:28.146Z,100546.13
2022-08-20T00:29:29.904Z,100547.31
2022-08-20T00:31:31.791Z,100539.44
2022-08-20T00:33:34.264Z,100538.84
2022-08-20T00:35:40.216Z,100546.63
2022-08-20T00:37:42.582Z,100541.84
2022-08-20T00:39:44.773Z,100541.53
2022-08-20T00:41:46.532Z,100538.00
2022-08-20T00:44:05.338Z,100530.28
2022-08-20T00:46:12.124Z,100531.56
2022-08-20T00:48:13.834Z,100533.00
2022-08-20T00:50:20.700Z,100527.16
2022-08-20T00:52:22.562Z,100519.78
2022-08-20T00:54:29.035Z,100510.72
2022-08-20T00:56:32.949Z,100505.53
2022-08-20T00:58:37.083Z,100499.22
2022-08-20T01:00:43.179Z,100498.94
2022-08-20T01:02:46.319Z,100488.19
2022-08-20T01:04:48.666Z,100509.50
2022-08-20T01:06:50.476Z,100518.97
2022-08-20T01:08:52.957Z,100527.81
2022-08-20T01:10:56.000Z,100523.25
2022-08-20T01:12:59.662Z,100530.22
2022-08-20T01:15:03.949Z,100532.03
2022-08-20T01:17:08.397Z,100533.81
2022-08-20T01:19:29.357Z,100539.00
2022-08-20T01:21:32.147Z,100545.22
2022-08-20T01:23:56.995Z,100526.84
2022-08-20T01:26:04.438Z,100537.13
2022-08-20T01:28:06.607Z,100545.38
2022-08-20T01:30:09.035Z,100547.16
2022-08-20T01:32:10.793Z,100541.31
2022-08-20T01:34:16.419Z,100552.81
2022-08-20T01:36:24.037Z,100554.00
2022-08-20T01:38:25.758Z,100558.25
2022-08-20T01:40:45.982Z,100561.28
2022-08-20T01:42:53.983Z,100559.09
2022-08-20T01:45:01.810Z,100567.41
2022-08-20T01:47:38.299Z,100571.53
2022-08-20T01:49:42.396Z,100565.97
2022-08-20T01:51:44.353Z,100528.78
2022-08-20T01:53:52.938Z,100561.13
2022-08-20T01:55:55.226Z,100549.28
2022-08-20T01:57:57.809Z,100547.19
2022-08-20T01:59:59.919Z,100536.81
2022-08-20T02:02:02.037Z,100520.09
2022-08-20T02:04:07.768Z,100480.44
2022-08-20T02:06:18.245Z,100499.59
2022-08-20T02:08:21.709Z,100488.13
2022-08-20T02:10:23.488Z,100490.97
2022-08-20T02:12:26.088Z,100489.31
2022-08-20T02:14:28.269Z,100483.88
2022-08-20T02:16:34.122Z,100480.69
2022-08-20T02:18:36.337Z,100483.78
2022-08-20T02:20:39.423Z,100474.97
2022-08-20T02:22:55.217Z,100469.53
2022-08-20T02:24:57.146Z,100459.91
2022-08-20T02:26:59.109Z,100464.66
2022-08-20T02:29:09.552Z,100470.06
2022-08-20T02:31:11.862Z,100467.41
2022-08-20T02:33:15.555Z,100465.31
2022-08-20T02:35:18.110Z,100468.72
2022-08-20T02:37:20.362Z,100476.72
2022-08-20T02:39:22.121Z,100483.25
2022-08-20T02:41:23.942Z,100488.22
2022-08-20T02:43:25.810Z,100482.81
2022-08-20T02:45:29.097Z,100480.56
2022-08-20T02:47:30.803Z,100484.47
2022-08-20T02:49:32.795Z,100488.16
2022-08-20T02:51:34.741Z,100484.09
2022-08-20T02:53:39.274Z,100480.03
2022-08-20T02:55:41.401Z,100459.06
2022-08-20T02:57:44.006Z,100462.13
2022-08-20T02:59:46.618Z,100442.84
2022-08-20T03:01:59.996Z,100458.44
2022-08-20T03:04:02.984Z,100448.03
2022-08-20T03:06:07.266Z,100459.41
2022-08-20T03:08:11.710Z,100449.94
2022-08-20T03:10:13.889Z,100437.47
2022-08-20T03:12:15.643Z,100455.63
2022-08-20T03:14:17.583Z,100460.06
2022-08-20T03:16:19.748Z,100451.50
2022-08-20T03:18:23.215Z,100446.41
2022-08-20T03:20:26.502Z,100445.13
2022-08-20T03:22:28.353Z,100441.16
2022-08-20T03:24:30.075Z,100447.63
2022-08-20T03:26:31.916Z,100450.97
2022-08-20T03:28:34.346Z,100453.38
2022-08-20T03:32:39.424Z,100466.13
2022-08-20T03:34:41.249Z,100458.88
2022-08-20T03:36:43.034Z,100456.59
2022-08-20T03:38:44.966Z,100442.81
2022-08-20T03:40:48.121Z,100437.47
2022-08-20T03:42:50.343Z,100445.25
2022-08-20T03:44:58.650Z,100451.38
2022-08-20T03:47:04.259Z,100455.06
2022-08-20T03:49:06.343Z,100452.13
2022-08-20T03:51:08.326Z,100456.38
2022-08-20T03:53:13.197Z,100468.47
2022-08-20T03:55:16.694Z,100473.88
2022-08-20T03:57:18.806Z,100473.66
2022-08-20T03:59:20.536Z,100475.31
2022-08-20T04:01:37.085Z,100469.13
2022-08-20T04:03:44.375Z,100467.19
2022-08-20T04:05:46.719Z,100462.00
2022-08-20T04:07:48.457Z,100468.00
2022-08-20T04:09:50.472Z,100467.69
2022-08-20T04:11:52.232Z,100446.78
2022-08-20T04:13:54.059Z,100452.31
2022-08-20T04:15:56.867Z,100455.13
2022-08-20T04:17:58.856Z,100456.06
2022-08-20T04:20:04.478Z,100469.44
2022-08-20T04:22:07.266Z,100474.13
2022-08-20T04:24:08.993Z,100480.69
2022-08-20T04:26:26.272Z,100479.31
2022-08-20T04:28:28.371Z,100473.56
2022-08-20T04:30:30.642Z,100479.91
2022-08-20T04:32:32.391Z,100481.28
2022-08-20T04:34:35.040Z,100474.50
2022-08-20T04:36:36.791Z,100489.56
2022-08-20T04:38:47.800Z,100486.16
2022-08-20T04:40:52.002Z,100484.00
2022-08-20T04:42:53.971Z,100496.97
2022-08-20T04:44:55.807Z,100491.34
2022-08-20T04:46:58.863Z,100491.78
2022-08-20T04:49:00.980Z,100498.72
2022-08-20T04:51:02.724Z,100495.78
2022-08-20T04:53:08.507Z,100494.25
2022-08-20T04:55:11.330Z,100488.66
2022-08-20T04:57:13.076Z,100489.28
2022-08-20T04:59:15.193Z,100485.75
2022-08-20T05:01:17.441Z,100483.78
2022-08-20T05:05:21.423Z,100484.72
2022-08-20T05:07:23.148Z,100488.25
2022-08-20T05:09:24.881Z,100476.28
2022-08-20T05:11:36.067Z,100489.84
2022-08-20T05:13:38.544Z,100485.13
2022-08-20T05:15:40.950Z,100480.13
2022-08-20T05:17:43.765Z,100476.13
2022-08-20T05:19:45.538Z,100489.09
2022-08-20T05:21:47.307Z,100496.38
2022-08-20T05:23:49.611Z,100500.03
2022-08-20T05:25:51.567Z,100505.81
2022-08-20T05:27:57.809Z,100502.28
2022-08-20T05:30:13.580Z,100507.81
2022-08-20T05:32:15.571Z,100508.41
2022-08-20T05:34:17.342Z,100512.38
2022-08-20T05:36:19.166Z,100504.22
2022-08-20T05:38:27.053Z,100507.25
2022-08-20T05:40:28.994Z,100503.50
2022-08-20T05:42:30.957Z,100502.22
2022-08-20T05:44:32.690Z,100502.72
2022-08-20T05:46:34.422Z,100509.84
2022-08-20T05:48:36.421Z,100504.91
2022-08-20T05:50:44.154Z,100494.81
2022-08-20T05:52:45.868Z,100507.56
2022-08-20T05:54:47.628Z,100504.53
2022-08-20T05:56:50.072Z,100503.19
2022-08-20T05:58:51.822Z,100502.22
2022-08-20T06:00:55.199Z,100499.50
2022-08-20T06:02:57.063Z,100500.72
2022-08-20T06:04:58.814Z,100498.72
2022-08-20T06:07:07.820Z,100498.72
2022-08-20T06:09:09.975Z,100502.91
2022-08-20T06:11:11.732Z,100494.69
2022-08-20T06:13:14.162Z,100496.91
2022-08-20T06:15:16.194Z,100500.13
2022-08-20T06:17:19.207Z,100494.69
2022-08-20T06:19:26.169Z,100501.53
2022-08-20T06:21:28.393Z,100494.81
2022-08-20T06:23:45.538Z,100499.38
2022-08-20T06:25:52.909Z,100501.66
2022-08-20T06:27:54.667Z,100510.16
2022-08-20T06:29:56.646Z,100505.69
2022-08-20T06:31:58.474Z,100512.53
2022-08-20T06:34:00.193Z,100507.03
2022-08-20T06:36:02.127Z,100506.03
2022-08-20T06:38:05.091Z,100502.03
2022-08-20T06:40:12.958Z,100503.78
2022-08-20T06:42:14.848Z,100503.44
2022-08-20T06:44:22.825Z,100487.59
2022-08-20T06:46:24.582Z,100486.59
2022-08-20T06:48:26.815Z,100498.19
2022-08-20T06:50:33.590Z,100491.72
2022-08-20T06:52:51.921Z,100486.09
2022-08-20T06:54:55.183Z,100501.34
2022-08-20T06:56:57.453Z,100491.31
2022-08-20T06:58:59.921Z,100485.50
2022-08-20T07:01:05.033Z,100488.59
2022-08-20T07:03:12.436Z,100481.78
2022-08-20T07:05:14.291Z,100471.41
2022-08-20T07:07:19.895Z,100482.59
2022-08-20T07:09:22.429Z,100486.94
2022-08-20T07:11:28.206Z,100477.75
2022-08-20T07:13:30.476Z,100482.00
2022-08-20T07:15:32.752Z,100496.94
2022-08-20T07:17:35.065Z,100487.53
2022-08-20T07:19:36.940Z,100496.41
2022-08-20T07:21:39.460Z,100498.25
2022-08-20T07:23:41.245Z,100490.44
2022-08-20T07:25:44.513Z,100488.31
2022-08-20T07:27:47.332Z,100489.09
2022-08-20T07:29:51.364Z,100492.75
2022-08-20T07:31:53.279Z,100495.19
2022-08-20T07:33:55.172Z,100490.31
2022-08-20T07:35:59.031Z,100490.66
2022-08-20T07:38:01.021Z,100489.91
2022-08-20T07:40:03.166Z,100498.53
2022-08-20T07:42:05.128Z,100489.31
2022-08-20T07:44:07.153Z,100487.47
2022-08-20T07:46:09.368Z,100477.03
2022-08-20T07:48:14.234Z,100477.81
2022-08-20T07:50:33.167Z,100448.47
2022-08-20T07:52:35.229Z,100487.31
2022-08-20T07:54:37.258Z,100490.78
2022-08-20T07:56:38.979Z,100502.84
2022-08-20T07:58:47.117Z,100496.22
2022-08-20T08:00:49.135Z,100485.59
2022-08-20T08:02:50.880Z,100485.59
2022-08-20T08:04:52.788Z,100493.94
2022-08-20T08:06:55.592Z,100477.41
2022-08-20T08:09:06.836Z,100482.41
2022-08-20T08:11:08.985Z,100499.94
2022-08-20T08:13:13.288Z,100482.84
2022-08-20T08:15:25.039Z,100483.22
2022-08-20T08:17:27.994Z,100497.84
2022-08-20T08:19:33.825Z,100485.63
2022-08-20T08:21:35.613Z,100501.97
2022-08-20T08:23:37.416Z,100494.84
2022-08-20T08:25:42.776Z,100505.22
2022-08-20T08:27:44.741Z,100501.78
2022-08-20T08:29:46.575Z,100504.97
2022-08-20T08:31:48.699Z,100506.63
2022-08-20T08:33:50.440Z,100505.75
2022-08-20T08:35:52.431Z,100498.78
2022-08-20T08:37:54.349Z,100492.47
2022-08-20T08:39:56.167Z,100486.53
2022-08-20T08:41:59.752Z,100497.97
2022-08-20T08:44:07.239Z,100503.47
2022-08-20T08:46:11.297Z,100508.00
2022-08-20T08:48:18.686Z,100508.81
2022-08-20T08:50:53.859Z,100499.25
2022-08-20T08:52:58.385Z,100501.63
2022-08-20T08:55:05.139Z,100505.03
2022-08-20T08:57:08.709Z,100518.16
2022-08-20T08:59:10.473Z,100517.97
2022-08-20T09:01:54.753Z,100516.19
2022-08-20T09:03:39.957Z,100504.97
2022-08-20T09:05:46.369Z,100500.47
2022-08-20T09:07:53.048Z,100502.69
2022-08-20T09:09:56.391Z,100511.25
2022-08-20T09:12:10.760Z,100509.31
2022-08-20T09:14:12.739Z,100514.91
2022-08-20T09:16:15.277Z,100504.09
2022-08-20T09:18:17.052Z,100516.16
2022-08-20T09:20:19.349Z,100509.94
2022-08-20T09:22:23.143Z,100494.00
2022-08-20T09:24:25.247Z,100504.84
2022-08-20T09:26:29.297Z,100512.97
2022-08-20T09:28:34.850Z,100511.06
2022-08-20T09:30:36.989Z,100507.88
2022-08-20T09:32:40.641Z,100508.16
2022-08-20T09:34:44.995Z,100507.84
2022-08-20T09:36:46.744Z,100513.19
2022-08-20T09:38:48.700Z,100511.13
2022-08-20T09:40:50.498Z,100515.22
2022-08-20T09:42:52.409Z,100517.38
2022-08-20T09:44:55.287Z,100510.50
2022-08-20T09:46:57.083Z,100511.19
2022-08-20T09:48:58.809Z,100512.19
2022-08-20T09:51:01.190Z,100514.78
2022-08-20T09:53:05.425Z,100513.84
2022-08-20T09:55:15.265Z,100521.97
2022-08-20T09:57:18.899Z,100505.31
2022-08-20T09:59:20.711Z,100522.13
2022-08-20T10:01:23.335Z,100517.00
2022-08-20T10:03:25.176Z,100516.13
2022-08-20T10:05:27.442Z,100518.38
2022-08-20T10:07:29.214Z,100518.31
2022-08-20T10:09:31.011Z,100516.53
2022-08-20T10:11:33.086Z,100516.13
2022-08-20T10:13:34.815Z,100518.31
2022-08-20T10:15:36.733Z,100518.09
2022-08-20T10:17:43.388Z,100520.41
2022-08-20T10:19:45.137Z,100519.47
2022-08-20T10:21:46.956Z,100521.94
2022-08-20T10:23:48.851Z,100517.81
2022-08-20T10:25:50.590Z,100525.78
2022-08-20T10:27:52.643Z,100517.34
2022-08-20T10:29:54.531Z,100510.03
2022-08-20T10:31:57.479Z,100510.44
2022-08-20T10:33:59.425Z,100515.28
2022-08-20T10:36:13.019Z,100508.84
2022-08-20T10:38:14.775Z,100516.72
2022-08-20T10:40:16.797Z,100514.00
2022-08-20T10:42:18.775Z,100509.69
2022-08-20T10:44:20.521Z,100504.97
2022-08-20T10:46:22.382Z,100508.78
2022-08-20T10:48:24.800Z,100507.47
2022-08-20T10:50:30.267Z,100506.63
2022-08-20T10:52:32.575Z,100503.66
2022-08-20T10:54:34.392Z,100510.53
2022-08-20T10:56:36.172Z,100510.25
2022-08-20T10:58:39.936Z,100503.94
2022-08-20T11:00:43.159Z,100507.97
2022-08-20T11:02:44.956Z,100501.09
2022-08-20T11:04:47.401Z,100508.09
2022-08-20T11:06:49.262Z,100505.84
2022-08-20T11:08:50.980Z,100501.78
2022-08-20T11:10:54.721Z,100508.84
2022-08-20T11:12:56.778Z,100508.13
2022-08-20T11:14:58.574Z,100505.25
2022-08-20T11:17:01.698Z,100503.16
2022-08-20T11:19:03.694Z,100497.38
2022-08-20T11:21:05.545Z,100489.41
2022-08-20T11:23:10.678Z,100493.09
2022-08-20T11:25:12.811Z,100496.66
2022-08-20T11:27:28.180Z,100490.47
2022-08-20T11:29:33.836Z,100492.78
2022-08-20T11:31:35.932Z,100500.28
2022-08-20T11:33:37.660Z,100488.72
2022-08-20T11:35:43.371Z,100499.38
2022-08-20T11:37:51.722Z,100500.63
2022-08-20T11:39:53.567Z,100500.44
2022-08-20T11:41:55.560Z,100495.16
2022-08-20T11:44:20.244Z,100490.50
2022-08-20T11:46:19.148Z,100488.31
2022-08-20T11:48:21.893Z,100489.75
2022-08-20T11:50:23.879Z,100493.00
2022-08-20T11:52:27.064Z,100499.22
2022-08-20T11:54:30.910Z,100501.84
2022-08-20T11:56:32.944Z,100499.47
2022-08-20T11:58:35.261Z,100501.75
2022-08-20T12:00:37.144Z,100497.38
2022-08-20T12:02:39.096Z,100494.28
2022-08-20T12:04:40.866Z,100490.28
2022-08-20T12:06:42.676Z,100492.53
2022-08-20T12:08:44.552Z,100480.81
2022-08-20T12:10:46.262Z,100483.47
2022-08-20T12:12:48.105Z,100481.88
2022-08-20T12:14:55.363Z,100472.38
2022-08-20T12:16:57.347Z,100472.34
2022-08-20T12:18:59.250Z,100463.91
2022-08-20T12:21:01.167Z,100473.44
2022-08-20T12:23:04.274Z,100464.75
2022-08-20T12:25:08.431Z,100469.63
2022-08-20T12:27:16.591Z,100463.84
2022-08-20T12:29:18.365Z,100465.25
2022-08-20T12:31:20.330Z,100465.47
2022-08-20T12:33:22.458Z,100464.63
2022-08-20T12:35:24.654Z,100460.16
2022-08-20T12:37:29.055Z,100463.56
2022-08-20T12:39:32.102Z,100448.78
2022-08-20T12:41:33.839Z,100455.13
2022-08-20T12:43:35.672Z,100454.31
2022-08-20T12:45:37.683Z,100457.88
2022-08-20T12:47:42.006Z,100460.63
2022-08-20T12:49:50.378Z,100464.19
2022-08-20T12:51:52.225Z,100463.13
2022-08-20T12:53:53.937Z,100457.44
2022-08-20T12:55:55.764Z,100458.88
2022-08-20T12:57:59.926Z,100461.84
2022-08-20T13:00:14.903Z,100455.19
2022-08-20T13:02:18.721Z,100453.00
2022-08-20T13:04:21.232Z,100449.38
2022-08-20T13:06:22.954Z,100452.84
2022-08-20T13:08:24.819Z,100454.38
2022-08-20T13:10:29.690Z,100461.56
2022-08-20T13:12:31.445Z,100452.72
2022-08-20T13:14:33.372Z,100458.28
2022-08-20T13:16:35.495Z,100461.25
2022-08-20T13:18:37.217Z,100463.53
2022-08-20T13:20:39.064Z,100464.97
2022-08-20T13:22:41.650Z,100461.50
2022-08-20T13:24:43.458Z,100465.72
2022-08-20T13:26:46.175Z,100456.28
2022-08-20T13:28:48.206Z,100463.47
2022-08-20T13:30:49.995Z,100460.13
2022-08-20T13:32:51.982Z,100461.41
2022-08-20T13:34:54.121Z,100457.44
2022-08-20T13:36:56.143Z,100451.56
2022-08-20T13:38:57.996Z,100449.19
2022-08-20T13:40:59.815Z,100450.78
2022-08-20T13:43:06.486Z,100451.28
2022-08-20T13:45:09.265Z,100448.94
2022-08-20T13:47:32.002Z,100450.72
2022-08-20T13:49:34.058Z,100452.31
2022-08-20T13:51:36.062Z,100445.69
2022-08-20T13:53:38.150Z,100438.09
2022-08-20T13:55:40.314Z,100432.41
2022-08-20T13:57:43.088Z,100437.72
2022-08-20T13:59:47.557Z,100434.72
2022-08-20T14:01:49.385Z,100445.06
2022-08-20T14:03:51.340Z,100441.69
2022-08-20T14:05:53.128Z,100435.31
2022-08-20T14:07:54.898Z,100440.88
2022-08-20T14:10:01.443Z,100441.47
2022-08-20T14:12:03.653Z,100437.19
2022-08-20T14:14:05.443Z,100442.72
2022-08-20T14:16:07.447Z,100441.97
2022-08-20T14:18:27.436Z,100437.22
2022-08-20T14:20:32.430Z,100438.53
2022-08-20T14:22:36.623Z,100437.47
2022-08-20T14:24:38.903Z,100437.59
2022-08-20T14:26:40.668Z,100443.53
2022-08-20T14:28:42.504Z,100440.19
2022-08-20T14:30:44.620Z,100438.16
2022-08-20T14:32:46.867Z,100437.91
2022-08-20T14:34:48.809Z,100432.00
2022-08-20T14:36:50.718Z,100429.47
2022-08-20T14:38:52.475Z,100440.50
2022-08-20T14:40:54.500Z,100440.25
2022-08-20T14:42:56.742Z,100437.88
2022-08-20T14:44:59.009Z,100432.00
2022-08-20T14:47:40.815Z,100446.84
2022-08-20T14:49:43.975Z,100431.50
2022-08-20T14:51:45.702Z,100436.44
2022-08-20T14:53:47.703Z,100439.41
2022-08-20T14:55:49.463Z,100441.41
2022-08-20T14:57:51.471Z,100443.63
2022-08-20T14:59:53.775Z,100440.38
2022-08-20T15:01:55.610Z,100447.22
2022-08-20T15:03:58.690Z,100448.06
2022-08-20T15:06:00.622Z,100450.50
2022-08-20T15:08:03.021Z,100436.25
2022-08-20T15:10:11.712Z,100443.91
2022-08-20T15:12:13.589Z,100438.28
2022-08-20T15:14:18.435Z,100454.78
2022-08-20T15:16:21.402Z,100454.22
2022-08-20T15:18:23.467Z,100451.66
2022-08-20T15:20:27.712Z,100455.78
2022-08-20T15:22:29.772Z,100459.97
2022-08-20T15:24:31.724Z,100460.81
2022-08-20T15:26:33.943Z,100465.16
2022-08-20T15:28:35.994Z,100455.09
2022-08-20T15:30:40.531Z,100450.44
2022-08-20T15:32:42.358Z,100453.13
2022-08-20T15:34:49.831Z,100453.19
2022-08-20T15:36:51.654Z,100449.88
2022-08-20T15:38:53.811Z,100452.09
2022-08-20T15:40:55.836Z,100454.22
2022-08-20T15:42:59.466Z,100455.13
2022-08-20T15:45:01.543Z,100451.88
2022-08-20T15:47:24.259Z,100456.50
2022-08-20T15:49:26.197Z,100450.47
2022-08-20T15:51:27.916Z,100448.50
2022-08-20T15:53:39.645Z,100439.78
2022-08-20T15:55:46.757Z,100449.63
2022-08-20T15:58:16.439Z,100447.41
2022-08-20T16:00:21.611Z,100450.16
2022-08-20T16:03:00.640Z,100459.06
2022-08-20T16:05:18.315Z,100454.53
2022-08-20T16:07:42.587Z,100452.06
2022-08-20T16:10:02.945Z,100452.06
2022-08-20T16:12:39.506Z,100451.81
2022-08-20T16:14:45.324Z,100438.97
2022-08-20T16:17:07.828Z,100445.13
2022-08-20T16:19:15.533Z,100432.44
2022-08-20T16:21:22.161Z,100429.28
2022-08-20T16:23:31.119Z,100429.28
2022-08-20T16:25:56.134Z,100421.38
2022-08-20T16:28:14.847Z,100434.44
2022-08-20T16:30:34.227Z,100430.97
2022-08-20T16:32:54.500Z,100431.25
2022-08-20T16:35:13.675Z,100431.69
2022-08-20T16:37:30.258Z,100433.28
2022-08-20T16:39:59.565Z,100428.06
2022-08-20T16:42:05.928Z,100419.09
2022-08-20T16:44:12.811Z,100430.25
2022-08-20T16:46:21.970Z,100422.63
2022-08-20T16:48:33.144Z,100430.78
2022-08-20T16:50:45.990Z,100441.13
2022-08-20T16:52:48.160Z,100440.63
2022-08-20T16:54:49.955Z,100443.94
2022-08-20T16:57:00.118Z,100452.41
2022-08-20T16:59:07.967Z,100453.28
2022-08-20T17:01:13.252Z,100458.44
2022-08-20T17:03:31.734Z,100462.25
2022-08-20T17:05:47.999Z,100457.53
2022-08-20T17:08:22.969Z,100461.06
2022-08-20T17:10:33.800Z,100457.53
2022-08-20T17:12:35.747Z,100454.81
2022-08-20T17:14:48.423Z,100459.75
2022-08-20T17:16:52.940Z,100445.00
2022-08-20T17:19:06.442Z,100442.25
2022-08-20T17:21:27.158Z,100439.44
2022-08-20T17:23:30.737Z,100432.06
2022-08-20T17:25:35.439Z,100427.19
2022-08-20T17:27:39.524Z,100433.91
2022-08-20T17:29:57.417Z,100434.91
2022-08-20T17:32:10.320Z,100441.72
2022-08-20T17:34:22.419Z,100460.13
2022-08-20T17:36:24.382Z,100470.00
2022-08-20T17:38:40.197Z,100473.28
2022-08-20T17:40:43.297Z,100470.75
2022-08-20T17:42:50.936Z,100462.75
2022-08-20T17:45:15.920Z,100457.06
2022-08-20T18:00:01.158Z,100475.75
2022-08-20T18:02:04.544Z,100479.59
2022-08-20T18:04:06.408Z,100477.16
2022-08-20T18:06:30.778Z,100471.41
2022-08-20T18:08:42.634Z,100457.56
2022-08-20T18:11:02.185Z,100454.03
2022-08-20T18:13:04.131Z,100458.25
2022-08-20T18:15:40.581Z,100472.84
2022-08-20T18:17:52.355Z,100477.78
2022-08-20T18:20:27.429Z,100480.00
2022-08-20T18:22:32.411Z,100484.00
2022-08-20T18:24:44.569Z,100471.66
2022-08-20T18:26:58.461Z,100476.38
2022-08-20T18:29:11.716Z,100474.25
2022-08-20T18:31:49.803Z,100466.13
2022-08-20T18:33:51.860Z,100465.91
2022-08-20T18:36:04.827Z,100477.88
2022-08-20T18:38:25.210Z,100480.72
2022-08-20T18:40:31.105Z,100481.31
2022-08-20T18:42:37.509Z,100473.78
2022-08-20T18:44:44.089Z,100472.72
2022-08-20T18:46:58.519Z,100468.06
2022-08-20T18:49:04.011Z,100450.84
2022-08-20T18:51:10.656Z,100458.25
2022-08-20T18:53:22.494Z,100450.38
2022-08-20T18:55:40.732Z,100446.59
2022-08-20T18:57:59.395Z,100447.41
2022-08-20T19:00:15.830Z,100448.25
2022-08-20T19:02:26.898Z,100447.16
2022-08-20T19:04:31.510Z,100443.06
2022-08-20T19:06:46.629Z,100444.72
2022-08-20T19:09:18.325Z,100435.16
2022-08-20T19:11:50.973Z,100434.81
2022-08-20T19:14:20.963Z,100444.19
2022-08-20T19:16:32.936Z,100445.97
2022-08-20T19:18:52.060Z,100446.22
2022-08-20T19:20:59.323Z,100457.97
2022-08-20T19:23:12.274Z,100470.84
2022-08-20T19:25:27.417Z,100472.59
2022-08-20T19:27:30.045Z,100473.91
2022-08-20T19:29:37.327Z,100488.72
2022-08-20T19:31:39.541Z,100480.16
2022-08-20T19:33:44.548Z,100487.19
2022-08-20T19:35:46.428Z,100485.44
2022-08-20T19:37:51.137Z,100481.19
2022-08-20T19:39:54.367Z,100477.41
2022-08-20T19:42:14.182Z,100474.19
2022-08-20T19:44:53.340Z,100485.44
2022-08-20T19:46:56.216Z,100499.53
2022-08-20T19:49:18.161Z,100519.56
2022-08-20T19:51:57.300Z,100523.94
2022-08-20T19:53:59.094Z,100524.66
2022-08-20T19:56:14.222Z,100525.94
2022-08-20T19:58:26.100Z,100524.22
2022-08-20T20:00:38.325Z,100525.56
2022-08-20T20:02:40.172Z,100516.94
2022-08-20T20:04:55.045Z,100519.56
2022-08-20T20:06:59.749Z,100511.97
2022-08-20T20:09:05.466Z,100512.44
2022-08-20T20:11:07.596Z,100508.00
2022-08-20T20:13:12.454Z,100508.00
2022-08-20T20:15:14.242Z,100508.53
2022-08-20T20:17:23.355Z,100513.59
2022-08-20T20:19:27.255Z,100499.53
2022-08-20T20:22:04.766Z,100499.44
2022-08-20T20:24:06.852Z,100502.09
2022-08-20T20:26:15.952Z,100500.38
2022-08-20T20:28:26.207Z,100496.03
2022-08-20T20:30:33.760Z,100491.88
2022-08-20T20:32:40.242Z,100501.25
2022-08-20T20:34:54.939Z,100506.53
2022-08-20T20:37:08.415Z,100497.19
2022-08-20T20:39:30.137Z,100504.06
2022-08-20T20:41:34.609Z,100509.47
2022-08-20T20:43:41.796Z,100509.22
2022-08-20T20:45:46.508Z,100512.06
2022-08-20T20:47:52.650Z,100515.13
2022-08-20T20:50:00.782Z,100514.09
2022-08-20T20:52:17.438Z,100515.41
2022-08-20T20:54:30.208Z,100506.81
2022-08-20T20:56:35.479Z,100503.78
2022-08-20T20:58:37.234Z,100505.09
2022-08-20T21:00:38.985Z,100506.91
2022-08-20T21:02:41.491Z,100507.13
2022-08-20T21:04:43.368Z,100505.41
2022-08-20T21:06:45.120Z,100516.09
2022-08-20T21:08:46.959Z,100513.16
2022-08-20T21:10:48.686Z,100517.16
2022-08-20T21:12:53.186Z,100518.28
2022-08-20T21:14:55.957Z,100524.56
2022-08-20T21:17:03.005Z,100528.00
2022-08-20T21:19:06.183Z,100525.31
2022-08-20T21:21:09.141Z,100525.56
2022-08-20T21:23:10.959Z,100533.06
2022-08-20T21:25:12.761Z,100534.94
2022-08-20T21:27:14.750Z,100544.47
2022-08-20T21:29:21.344Z,100541.16
2022-08-20T21:31:30.417Z,100539.25
2022-08-20T21:33:32.880Z,100549.13
2022-08-20T21:35:34.612Z,100554.16
2022-08-20T21:37:36.636Z,100550.72
2022-08-20T21:39:38.896Z,100550.06
2022-08-20T21:41:43.023Z,100550.06
2022-08-20T21:43:44.796Z,100550.16
2022-08-20T21:45:51.605Z,100542.50
2022-08-20T21:47:53.969Z,100538.00
2022-08-20T21:49:55.791Z,100544.63
2022-08-20T21:51:58.613Z,100553.16
2022-08-20T21:54:00.344Z,100554.16
2022-08-20T21:56:02.526Z,100552.94
2022-08-20T21:58:04.922Z,100546.75
2022-08-20T22:00:16.566Z,100546.66
2022-08-20T22:02:19.133Z,100550.63
2022-08-20T22:04:21.376Z,100540.19
2022-08-20T22:06:23.157Z,100546.34
2022-08-20T22:08:28.326Z,100553.53
2022-08-20T22:10:30.729Z,100532.63
2022-08-20T22:12:32.497Z,100550.81
2022-08-20T22:14:34.255Z,100555.19
2022-08-20T22:16:36.293Z,100561.91
2022-08-20T22:18:38.481Z,100550.66
2022-08-20T22:20:41.342Z,100556.06
2022-08-20T22:22:45.976Z,100548.47
2022-08-20T22:24:47.901Z,100557.41
2022-08-20T22:26:49.695Z,100559.63
2022-08-20T22:28:51.802Z,100562.19
2022-08-20T22:30:53.605Z,100573.28
2022-08-20T22:33:02.073Z,100567.88
2022-08-20T22:35:05.295Z,100563.97
2022-08-20T22:37:07.356Z,100587.69
2022-08-20T22:39:09.684Z,100591.22
2022-08-20T22:41:11.707Z,100577.38
2022-08-20T22:43:14.487Z,100588.94
2022-08-20T22:45:16.361Z,100580.03
2022-08-20T22:47:22.293Z,100576.16
2022-08-20T22:49:29.296Z,100576.72
2022-08-20T22:51:35.061Z,100565.59
2022-08-20T22:53:37.682Z,100571.72
2022-08-20T22:55:39.517Z,100564.94
2022-08-20T22:57:41.392Z,100572.94
2022-08-20T22:59:45.871Z,100564.25
2022-08-20T23:01:54.958Z,100560.69
2022-08-20T23:04:05.513Z,100550.66
2022-08-20T23:06:09.958Z,100551.31
2022-08-20T23:08:11.930Z,100544.94
2022-08-20T23:10:13.978Z,100551.81
2022-08-20T23:12:16.157Z,100548.81
2022-08-20T23:14:17.973Z,100550.00
2022-08-20T23:16:19.781Z,100539.28
2022-08-20T23:18:21.994Z,100534.56
2022-08-20T23:20:24.125Z,100527.19
2022-08-20T23:22:26.136Z,100532.91
2022-08-20T23:24:28.314Z,100528.06
2022-08-20T23:26:30.073Z,100534.19
2022-08-20T23:28:32.334Z,100539.47
2022-08-20T23:30:35.029Z,100531.78
2022-08-20T23:32:38.441Z,100531.56
2022-08-20T23:34:40.417Z,100529.59
2022-08-20T23:36:43.260Z,100524.66
2022-08-20T23:38:45.439Z,100527.91
2022-08-20T23:40:47.182Z,100511.75
2022-08-20T23:42:49.193Z,100514.22
2022-08-20T23:44:50.934Z,100521.41
2022-08-20T23:46:54.683Z,100514.53
2022-08-20T23:48:56.907Z,100511.47
2022-08-20T23:50:58.661Z,100512.69
2022-08-20T23:53:00.465Z,100504.13
2022-08-20T23:55:02.691Z,100506.69
2022-08-20T23:57:08.305Z,100517.47
2022-08-20T23:59:10.402Z,100511.84
